createdAt,value
2023-03-22T05:03:55.888Z,7.71
2023-03-22T05:07:59.427Z,7.72
2023-03-22T05:12:02.580Z,7.73
2023-03-22T05:16:34.336Z,7.78
2023-03-22T05:20:38.913Z,7.75
2023-03-22T05:24:52.343Z,7.80
2023-03-22T05:29:02.789Z,7.87
2023-03-22T05:33:24.376Z,7.76
2023-03-22T05:37:32.030Z,7.72
2023-03-22T05:41:36.654Z,7.74
2023-03-22T05:45:40.165Z,7.76
2023-03-22T05:49:59.002Z,7.80
2023-03-22T05:54:05.042Z,8.00
2023-03-22T05:58:13.133Z,8.03
2023-03-22T06:02:16.519Z,8.14
2023-03-22T06:06:19.189Z,8.19
2023-03-22T06:10:31.816Z,8.57
2023-03-22T06:14:34.733Z,8.78
2023-03-22T06:18:55.931Z,9.00
2023-03-22T06:22:58.542Z,9.12
2023-03-22T06:27:02.469Z,9.26
2023-03-22T06:31:07.813Z,9.40
2023-03-22T06:35:22.608Z,9.52
2023-03-22T06:39:25.631Z,9.59
2023-03-22T06:43:30.266Z,9.75
2023-03-22T06:47:44.257Z,9.83
2023-03-22T06:52:07.090Z,10.11
2023-03-22T06:56:10.672Z,10.53
2023-03-22T07:00:27.257Z,10.91
2023-03-22T07:04:29.930Z,11.18
2023-03-22T07:08:33.165Z,10.90
2023-03-22T07:12:36.066Z,11.24
2023-03-22T07:16:45.973Z,11.24
2023-03-22T07:20:48.730Z,11.21
2023-03-22T07:24:57.260Z,11.64
2023-03-22T07:29:03.530Z,11.67
2023-03-22T07:33:11.736Z,11.31
2023-03-22T07:37:16.055Z,10.96
2023-03-22T07:41:19.187Z,10.81
2023-03-22T07:45:44.586Z,10.99
2023-03-22T07:50:09.455Z,11.27
2023-03-22T07:54:15.791Z,11.60
2023-03-22T07:58:25.366Z,11.86
2023-03-22T08:02:28.279Z,12.12
2023-03-22T08:06:36.809Z,12.21
2023-03-22T08:10:39.591Z,12.42
2023-03-22T08:14:42.469Z,12.70
2023-03-22T08:18:52.386Z,13.02
2023-03-22T08:22:56.937Z,13.53
2023-03-22T08:27:02.249Z,13.87
2023-03-22T08:31:17.490Z,14.13
2023-03-22T08:35:22.128Z,13.77
2023-03-22T08:39:27.946Z,13.95
2023-03-22T08:43:50.853Z,14.00
2023-03-22T08:47:53.845Z,14.14
2023-03-22T08:51:59.453Z,14.60
2023-03-22T08:56:22.679Z,14.85
2023-03-22T09:00:48.203Z,15.10
2023-03-22T09:04:59.309Z,15.08
2023-03-22T09:09:02.174Z,15.34
2023-03-22T09:13:06.741Z,14.93
2023-03-22T09:17:09.895Z,14.81
2023-03-22T09:21:13.083Z,14.66
2023-03-22T09:25:28.549Z,13.90
2023-03-22T09:29:32.676Z,13.77
2023-03-22T09:33:41.412Z,13.84
2023-03-22T09:37:45.525Z,13.81
2023-03-22T09:41:53.148Z,13.87
2023-03-22T09:45:57.547Z,13.75
2023-03-22T09:50:07.761Z,13.68
2023-03-22T09:54:14.522Z,13.84
2023-03-22T09:58:25.848Z,14.40
2023-03-22T10:02:44.614Z,14.34
2023-03-22T10:06:51.257Z,14.82
2023-03-22T10:10:54.258Z,14.75
2023-03-22T10:15:04.341Z,14.46
2023-03-22T10:19:18.145Z,14.33
2023-03-22T10:23:27.812Z,14.64
2023-03-22T10:27:32.406Z,14.99
2023-03-22T10:31:35.707Z,14.57
2023-03-22T10:35:39.963Z,14.26
2023-03-22T10:39:46.349Z,14.11
2023-03-22T10:43:53.012Z,14.17
2023-03-22T10:48:00.000Z,14.38
2023-03-22T10:52:13.230Z,14.64
2023-03-22T10:56:18.736Z,15.18
2023-03-22T11:00:24.104Z,15.40
2023-03-22T11:04:27.232Z,15.27
2023-03-22T11:08:40.025Z,15.05
2023-03-22T11:12:50.512Z,14.96
2023-03-22T11:16:55.983Z,14.75
2023-03-22T11:21:00.748Z,15.07
2023-03-22T11:25:11.142Z,15.08
2023-03-22T11:29:18.766Z,14.99
2023-03-22T11:33:25.024Z,15.02
2023-03-22T11:37:27.516Z,15.09
2023-03-22T11:41:35.666Z,15.53
2023-03-22T11:45:43.109Z,15.32
2023-03-22T11:49:48.257Z,15.29
2023-03-22T11:53:50.861Z,15.00
2023-03-22T11:57:57.118Z,15.33
2023-03-22T12:02:05.902Z,15.54
2023-03-22T12:06:17.809Z,15.80
2023-03-22T12:10:27.371Z,15.52
2023-03-22T12:14:41.545Z,15.54
2023-03-22T12:18:51.377Z,15.42
2023-03-22T12:22:55.792Z,15.30
2023-03-22T12:27:02.846Z,15.60
2023-03-22T12:31:11.621Z,15.86
2023-03-22T12:35:19.197Z,15.78
2023-03-22T12:39:26.675Z,15.69
2023-03-22T12:43:43.133Z,15.48
2023-03-22T12:47:51.947Z,15.53
2023-03-22T12:51:56.990Z,15.54
2023-03-22T12:56:00.856Z,15.66
2023-03-22T13:00:10.292Z,15.95
2023-03-22T13:04:32.540Z,15.86
2023-03-22T13:09:05.175Z,16.23
2023-03-22T13:13:15.438Z,16.26
2023-03-22T13:17:38.822Z,16.46
2023-03-22T13:21:43.314Z,16.36
2023-03-22T13:26:02.317Z,16.11
2023-03-22T13:30:10.467Z,15.73
2023-03-22T13:34:19.669Z,15.82
2023-03-22T13:38:25.991Z,15.93
2023-03-22T13:42:36.597Z,15.95
2023-03-22T13:46:50.298Z,15.87
2023-03-22T13:50:54.028Z,15.83
2023-03-22T13:54:59.606Z,15.89
2023-03-22T13:59:04.644Z,16.10
2023-03-22T14:03:14.479Z,16.16
2023-03-22T14:07:23.904Z,15.98
2023-03-22T14:11:33.704Z,16.02
2023-03-22T14:15:42.238Z,16.24
2023-03-22T14:19:45.758Z,15.92
